Latest Coastal Weather Observations for Learmonth

IDW60701

Issued at 1:35 pm WST Friday 25 April 2014 (issued every 10 minutes, with the page automatically refreshed every 10 minutes)

About coastal observations | Map of coastal stations | Coastal observations for WA | Marine services | Other Formats
Station Details ID: 005007 Name: LEARMONTH AIRPORT Lat: -22.24 Lon: 114.10 Height: 5.0 m
Data from the previous 72 hours. | See also: Recent months at Learmonth
Date/Time
WST
Temp

°C
Wind Pressure Rain
since 9am
mm
Weather Cloud Vis
km
Sea
Height
m
Swell
Dir
 
Speed
knots
Gust
knots
hPa Trend Height
m
Period
s
Dir
25/01:30pm 27.1 N 13 15 1008.2 - 6.8 - Partly cloudy 10 - - - -
25/01:00pm 27.0 N 11 13 1008.4 - 6.8 - Partly cloudy 10 - - - -
25/12:30pm 26.9 N 12 14 1008.7 - 6.8 - Partly cloudy 10 - - - -
25/12:08pm 26.0 N 9 12 1008.8 - 6.8 - Partly cloudy 10 - - - -
25/12:00pm 25.6 NE 11 14 1008.4 - 6.2 - Cloudy 9 - - - -
25/11:58am 25.5 NE 11 14 1008.5 - 6.2 - Partly cloudy 8 - - - -
25/11:57am 25.4 NE 10 12 1008.6 - 6.2 - Partly cloudy 9 - - - -
25/11:30am 25.2 N 9 11 1009.6 - 3.8 - Partly cloudy 1 - - - -
25/11:13am 25.5 N 12 15 1009.4 - 0.6 - Partly cloudy 8 - - - -
25/11:00am 26.3 NNE 11 15 1009.5 - 0.0 - Cloudy 10 - - - -
25/10:30am 27.1 N 12 15 1009.8 - 0.0 - Partly cloudy 10 - - - -
25/10:00am 27.2 N 13 15 1009.9 - 0.0 - Partly cloudy 10 - - - -
25/09:30am 27.9 NNE 11 14 1010.0 - 0.0 - Partly cloudy 10 - - - -
25/09:00am 27.1 NE 10 12 1009.6 - 0.0 - Mostly cloudy 10 - - - -
25/08:30am 26.7 NNE 6 10 1009.7 - 0.0 - Partly cloudy 10 - - - -
25/08:00am 25.6 NNW 3 4 1009.7 - 0.0 - Cloudy 10 - - - -
25/07:30am 24.7 CALM 0 0 1009.7 - 0.0 - Partly cloudy 10 - - - -
25/07:00am 24.1 SSW 1 3 1009.6 - 0.0 - Partly cloudy 10 - - - -
25/06:30am 23.9 CALM 0 0 1009.2 - 0.0 - Partly cloudy 10 - - - -
25/06:00am 23.9 CALM 0 0 1009.0 - 0.0 - Cloudy 10 - - - -
25/05:30am 24.1 CALM 0 0 1009.1 - 0.0 - Cloudy 10 - - - -
25/05:00am 24.0 NW 3 4 1009.2 - 0.0 - Cloudy 10 - - - -
25/04:30am 23.7 CALM 0 0 1008.7 - 0.0 - Cloudy 10 - - - -
25/04:00am 23.3 CALM 0 0 1008.9 - 0.0 - Partly cloudy 10 - - - -
25/03:30am 23.2 CALM 0 0 1008.8 - 0.0 - Partly cloudy 10 - - - -
25/03:00am 23.2 CALM 0 0 1008.9 - 0.0 - Partly cloudy 10 - - - -
25/02:30am 23.2 CALM 0 3 1009.0 - 0.0 - Partly cloudy 10 - - - -
25/02:00am 23.1 SSE 5 5 1009.1 - 0.0 - Partly cloudy 10 - - - -
25/01:30am 23.2 CALM 0 0 1009.5 - 0.0 - - 10 - - - -
25/01:00am 23.6 CALM 0 0 1009.4 - 0.0 - - 10 - - - -
25/12:30am 23.7 CALM 0 0 1009.6 - 0.0 - - 10 - - - -
25/12:00am 23.6 SW 1 3 1009.7 - 0.0 - - 10 - - - -
 
Date/Time
WST
Temp

°C
Wind Pressure Rain
since 9am
mm
Weather Cloud Vis
km
Sea
Height
m
Swell
Dir
 
Speed
knots
Gust
knots
hPa Trend Height
m
Period
s
Dir
24/11:30pm 23.7 SW 3 4 1010.2 - 0.0 - - 10 - - - -
24/11:00pm 24.1 SSW 4 5 1010.5 - 0.0 - - 10 - - - -
24/10:30pm 24.5 SSW 4 6 1010.8 - 0.0 - - 10 - - - -
24/10:00pm 24.9 SW 7 9 1011.0 - 0.0 - - 10 - - - -
24/09:30pm 24.8 SSW 7 9 1011.1 - 0.0 - - 10 - - - -
24/09:00pm 24.8 SSW 8 11 1010.9 - 0.0 - - 10 - - - -
24/08:30pm 25.2 SW 6 8 1010.8 - 0.0 - - 10 - - - -
24/08:00pm 25.7 WSW 6 8 1010.4 - 0.0 - - 10 - - - -
24/07:30pm 26.1 WSW 8 10 1010.1 - 0.0 - - 10 - - - -
24/07:00pm 26.6 WSW 9 11 1009.9 - 0.0 - - 10 - - - -
24/06:30pm 27.3 WSW 10 13 1009.8 - 0.0 - - 10 - - - -
24/06:00pm 28.1 W 9 12 1009.1 - 0.0 - - 10 - - - -
24/05:30pm 28.9 W 10 11 1008.7 - 0.0 - - 10 - - - -
24/05:00pm 29.6 W 6 11 1008.6 - 0.0 - - 10 - - - -
24/04:30pm 29.2 NNE 9 11 1008.4 - 0.0 - - 10 - - - -
24/04:00pm 29.1 NNE 10 12 1008.1 - 0.0 - - 10 - - - -
24/03:30pm 30.0 NNE 10 12 1008.1 - 0.0 - - 10 - - - -
24/03:00pm 30.1 NNE 11 12 1008.0 F 0.0 Haze Partly cloudy 20 - - - -
24/02:30pm 30.7 NE 9 12 1008.1 - 0.0 - - 10 - - - -
24/02:00pm 30.5 NE 10 12 1008.3 - 0.0 - - 10 - - - -
24/01:30pm 30.4 NE 8 10 1008.6 - 0.0 - - 10 - - - -
24/01:00pm 29.7 NE 9 12 1009.0 - 0.0 - - 10 - - - -
24/12:30pm 29.9 NE 8 10 1009.5 - 0.0 - - 10 - - - -
24/12:00pm 28.8 ENE 7 9 1010.0 F 0.0 Haze Mostly cloudy 25 - - - -
24/11:30am 27.9 ENE 7 8 1010.6 - 0.0 - - 10 - - - -
24/11:00am 28.5 ENE 6 9 1010.9 - 0.0 - - 10 - - - -
24/10:30am 27.7 ESE 4 6 1011.4 - 0.0 - - 10 - - - -
24/10:00am 27.1 SE 5 6 1011.7 - 0.0 - - 10 - - - -
24/09:30am 26.4 SSE 5 7 1011.8 - 0.0 - - 10 - - - -
24/09:00am 25.8 S 8 9 1011.7 S 0.0 Fine Mostly cloudy 25 - - - -
24/08:30am 25.5 SSW 8 10 1011.6 - 0.0 - - 10 - - - -
24/08:00am 24.2 SSW 6 8 1011.4 - 0.0 - - 10 - - - -
24/07:30am 22.9 SW 4 5 1011.2 - 0.0 - - 10 - - - -
24/07:00am 21.9 WSW 4 5 1010.9 - 0.0 - - 10 - - - -
24/06:30am 21.5 WSW 5 5 1010.6 - 0.0 - - 10 - - - -
24/06:00am 21.6 WSW 5 6 1010.6 R 0.0 Haze Mostly cloudy 27 - - - -
24/05:30am 22.0 WSW 3 4 1010.3 - 0.0 - - 10 - - - -
24/05:00am 21.9 SW 5 6 1009.8 - 0.0 - - 10 - - - -
24/04:30am 21.1 SW 5 5 1010.0 - 0.0 - - 10 - - - -
24/04:00am 21.4 SW 4 6 1009.9 - 0.0 - - 10 - - - -
24/03:30am 21.0 SW 6 6 1010.0 - 0.0 - - 10 - - - -
24/03:00am 21.4 SSW 5 6 1010.0 - 0.0 - - 10 - - - -
24/02:30am 22.4 SW 6 7 1010.4 - 0.0 - - 10 - - - -
24/02:00am 23.2 SW 7 9 1010.5 - 0.0 - - 10 - - - -
24/01:30am 23.5 SSW 8 10 1010.8 - 0.0 - - 10 - - - -
24/01:00am 24.0 SSW 8 11 1011.0 - 0.0 - - 10 - - - -
24/12:30am 24.0 SSW 6 7 1010.9 - 0.0 - - 10 - - - -
24/12:00am 24.9 SW 6 8 1011.0 - 0.0 - - 10 - - - -
 
Date/Time
WST
Temp

°C
Wind Pressure Rain
since 9am
mm
Weather Cloud Vis
km
Sea
Height
m
Swell
Dir
 
Speed
knots
Gust
knots
hPa Trend Height
m
Period
s
Dir
23/11:30pm 24.9 SW 5 7 1011.4 - 0.0 - - 10 - - - -
23/11:00pm 24.3 SSW 5 7 1011.4 - 0.0 - - 10 - - - -
23/10:30pm 24.6 SSW 5 6 1011.4 - 0.0 - - 10 - - - -
23/10:00pm 25.1 SW 7 9 1011.5 - 0.0 - - 10 - - - -
23/09:30pm 25.1 SSW 7 9 1011.8 - 0.0 - - 10 - - - -
23/09:00pm 25.3 SSW 8 10 1011.8 - 0.0 - - 10 - - - -
23/08:30pm 25.6 SSW 8 10 1011.8 - 0.0 - - 10 - - - -
23/08:00pm 26.4 SW 5 8 1011.5 - 0.0 - - 10 - - - -
23/07:30pm 27.2 W 7 9 1011.4 - 0.0 - - 10 - - - -
23/07:00pm 27.8 WSW 7 8 1011.2 - 0.0 - - 10 - - - -
23/06:30pm 28.5 W 7 8 1010.9 - 0.0 - - 10 - - - -
23/06:00pm 29.2 W 8 11 1010.6 - 0.0 - - 10 - - - -
23/05:30pm 29.3 W 9 13 1010.6 - 0.0 - - 10 - - - -
23/05:00pm 30.3 W 10 13 1010.4 - 0.0 - - 10 - - - -
23/04:30pm 30.9 WSW 10 13 1010.3 - 0.0 - - 10 - - - -
23/04:00pm 31.4 W 9 13 1010.0 - 0.0 - - 10 - - - -
23/03:30pm 30.0 N 6 9 1010.1 - 0.0 - - 10 - - - -
23/03:00pm 28.9 NNE 9 12 1010.0 R 0.0 Fine Mostly cloudy 30 - - - -
23/02:30pm 29.5 NNE 11 13 1010.1 - 0.0 - - 10 - - - -
23/02:00pm 29.8 NE 7 10 1010.3 - 0.0 - - 10 - - - -
23/01:30pm 30.2 NE 9 12 1010.7 - 0.0 - - 10 - - - -
23/01:00pm 30.6 ENE 8 10 1011.0 - 0.0 - - 10 - - - -
23/12:30pm 29.4 ENE 9 10 1011.4 - 0.0 - - 10 - - - -
23/12:00pm 29.1 E 11 17 1011.5 F 0.0 Haze Partly cloudy 27 - - - -
23/11:30am 29.7 E 9 13 1012.0 - 0.0 - - 10 - - - -
23/11:00am 30.7 WSW 3 7 1012.6 - 0.0 - - 10 - - - -
23/10:30am 30.1 SSW 5 7 1012.8 - 0.0 - - 10 - - - -
23/10:00am 28.8 SSW 7 10 1013.0 - 0.0 - - 10 - - - -
23/09:30am 28.3 SW 8 10 1013.1 - 0.0 - - 10 - - - -
23/09:00am 27.6 SW 7 10 1012.9 F 0.0 Haze Partly cloudy 25 - - - -
23/08:30am 26.3 WSW 6 8 1013.1 - 0.0 - - 10 - - - -
23/08:00am 24.7 W 5 6 1012.9 - 0.0 - - 10 - - - -
23/07:30am 23.3 CALM 0 0 1012.6 - 0.0 - - 10 - - - -
23/07:00am 20.8 WSW 3 3 1012.5 - 0.0 - - 10 - - - -
23/06:30am 20.0 WSW 2 3 1012.2 - 0.0 - - 10 - - - -
23/06:00am 20.4 CALM 0 0 1012.2 R 0.0 Haze Mostly cloudy 27 - - - -
23/05:30am 20.7 W 3 4 1012.1 - 0.0 - - 10 - - - -
23/05:00am 20.8 W 2 3 1012.0 - 0.0 - - 10 - - - -
23/04:30am 21.0 W 2 4 1011.9 - 0.0 - - 10 - - - -
23/04:00am 21.2 WSW 4 4 1012.0 - 0.0 - - 10 - - - -
23/03:30am 21.1 SW 4 5 1011.7 - 0.0 - - 10 - - - -
23/03:00am 20.6 SSW 6 7 1011.7 - 0.0 - - 10 - - - -
23/02:30am 20.7 S 7 8 1012.2 - 0.0 - - 10 - - - -
23/02:00am 21.4 SSW 5 5 1012.4 - 0.0 - - 10 - - - -
23/01:30am 22.1 SSW 5 6 1012.5 - 0.0 - - 10 - - - -
23/01:00am 23.1 SW 6 8 1012.8 - 0.0 - - 10 - - - -
23/12:30am 23.6 SSW 7 9 1012.7 - 0.0 - - 10 - - - -
23/12:00am 24.4 SSW 8 10 1012.7 - 0.0 - - 10 - - - -
 
Date/Time
WST
Temp

°C
Wind Pressure Rain
since 9am
mm
Weather Cloud Vis
km
Sea
Height
m
Swell
Dir
 
Speed
knots
Gust
knots
hPa Trend Height
m
Period
s
Dir
22/11:30pm 25.3 SW 9 13 1013.1 - 0.0 - - 10 - - - -
22/11:00pm 25.5 SW 9 12 1013.2 - 0.0 - - 10 - - - -
22/10:30pm 25.5 SW 9 12 1013.4 - 0.0 - - 10 - - - -
22/10:00pm 25.8 SW 10 14 1013.6 - 0.0 - - 10 - - - -
22/09:30pm 25.8 SW 7 10 1013.8 - 0.0 - - 10 - - - -
22/09:00pm 25.9 SW 6 8 1013.6 - 0.0 - - 10 - - - -
22/08:30pm 26.1 WSW 9 11 1013.5 - 0.0 - - 10 - - - -
22/08:00pm 26.1 WSW 7 10 1013.4 - 0.0 - - 10 - - - -
22/07:30pm 26.7 WSW 9 12 1012.9 - 0.0 - - 10 - - - -
22/07:00pm 27.1 WSW 7 11 1012.3 - 0.0 - - 10 - - - -
22/06:30pm 28.0 W 9 11 1012.1 - 0.0 - - 10 - - - -
22/06:00pm 29.3 WNW 4 10 1011.7 - 0.0 - - 10 - - - -
22/05:30pm 29.6 N 7 9 1011.5 - 0.0 - - 10 - - - -
22/05:00pm 30.6 N 6 8 1011.2 - 0.0 - - 10 - - - -
22/04:30pm 30.4 NNE 9 11 1010.9 - 0.0 - - 10 - - - -
22/04:00pm 31.0 NNE 9 11 1010.7 - 0.0 - - 10 - - - -
22/03:30pm 32.2 NE 8 11 1010.7 - 0.0 - - 10 - - - -
22/03:00pm 32.4 NNE 9 11 1010.6 F 0.0 Fine Mostly cloudy 30 - - - -
22/02:30pm 32.3 NE 9 11 1010.8 - 0.0 - - 10 - - - -
22/02:00pm 32.4 ENE 9 11 1011.0 - 0.0 - - 10 - - - -

Other Formats:

Comma delimited format used in spreadsheet applications
http://www.bom.gov.au/fwo/IDW60701/IDW60701.94302.axf

JavaScript Object Notation format (JSON) in row-major order
http://www.bom.gov.au/fwo/IDW60701/IDW60701.94302.json